Bc Singapore — V2ET7 — position and weather

sailwx.info

Track history (hours):
 
Tides and Currents Weather Stations Pressure Air Temp Water Temp Dewpoint Dewpoint Depression Visibility Wind Speed Wind Dir Waves Ship Positions

Bc Singapore

Last reported at 2017-Dec-10 04:09 UTC. Time now 2017-Dec-14 02:30 UTC.
Position N 14°21' W 061°12'.

Length 148 m; draft 7.8 m.

Type: Ship (hazmat cat C). MMSI: 305548000.

Date/timePositionNaut miles runAvg speedWind from/ knotsBaromVisibWave heightAir tempDewpointWater temp
2017-Dec-10 04:09N 14°21' W 061°12'316.5
2017-Dec-10 03:59N 14°24' W 061°12'816.3
2017-Dec-10 03:30N 14°31' W 061°09'612.0
2017-Dec-10 03:00N 14°35' W 061°04'1 0.8
2017-Dec-10 01:25N 14°36' W 061°03'0 0.0
2017-Dec-10 00:07N 14°36' W 061°03'0 0.0
2017-Dec-09 19:31N 14°36' W 061°03'0 0.0
2017-Dec-09 17:43N 14°36' W 061°03'0 0.1
2017-Dec-09 17:25N 14°36' W 061°03'0 0.0
2017-Dec-09 16:58N 14°36' W 061°03'0 0.0
2017-Dec-09 16:25N 14°36' W 061°03'0 0.0
2017-Dec-09 15:46N 14°36' W 061°03'0 0.0
2017-Dec-09 15:28N 14°36' W 061°03'0 0.0
2017-Dec-09 14:55N 14°36' W 061°03'0 0.0
2017-Dec-09 09:52N 14°36' W 061°03'1 1.4
2017-Dec-09 09:20N 14°35' W 061°04'6 7.6
2017-Dec-09 08:35N 14°35' W 061°10'110.7
2017-Dec-09 08:30N 14°36' W 061°10'10014.0
2017-Dec-09 01:23N 16°14' W 061°32'104 4.3
2017-Dec-08 01:23N 14°42' W 060°42'  
Track history (hours):
 
Tides and Currents Weather Stations Pressure Air Temp Water Temp Dewpoint Dewpoint Depression Visibility Wind Speed Wind Dir Waves Ship Positions

Bc Singapore

Last reported at 2017-Dec-10 04:09 UTC. Time now 2017-Dec-14 02:30 UTC.
Position N 14°21' W 061°12'.

Length 148 m; draft 7.8 m.

Type: Ship (hazmat cat C). MMSI: 305548000.

Date/timePositionNaut miles runAvg speedWind from/ knotsBaromVisibWave heightAir tempDewpointWater temp
2017-Dec-10 04:09N 14°21' W 061°12'316.5
2017-Dec-10 03:59N 14°24' W 061°12'816.3
2017-Dec-10 03:30N 14°31' W 061°09'612.0
2017-Dec-10 03:00N 14°35' W 061°04'1 0.8
2017-Dec-10 01:25N 14°36' W 061°03'0 0.0
2017-Dec-10 00:07N 14°36' W 061°03'0 0.0
2017-Dec-09 19:31N 14°36' W 061°03'0 0.0
2017-Dec-09 17:43N 14°36' W 061°03'0 0.1
2017-Dec-09 17:25N 14°36' W 061°03'0 0.0
2017-Dec-09 16:58N 14°36' W 061°03'0 0.0
2017-Dec-09 16:25N 14°36' W 061°03'0 0.0
2017-Dec-09 15:46N 14°36' W 061°03'0 0.0
2017-Dec-09 15:28N 14°36' W 061°03'0 0.0
2017-Dec-09 14:55N 14°36' W 061°03'0 0.0
2017-Dec-09 09:52N 14°36' W 061°03'1 1.4
2017-Dec-09 09:20N 14°35' W 061°04'6 7.6
2017-Dec-09 08:35N 14°35' W 061°10'110.7
2017-Dec-09 08:30N 14°36' W 061°10'10014.0
2017-Dec-09 01:23N 16°14' W 061°32'104 4.3
2017-Dec-08 01:23N 14°42' W 060°42'  

Dump ship's entire track history